sensor_id;sensor_type;location;lat;lon;timestamp;temperature;humidity
75683;HTU21D;64295;44.772;39.872;2023-07-31T00:01:48;21.15;57.71
75683;HTU21D;64295;44.772;39.872;2023-07-31T00:04:14;21.05;58.00
75683;HTU21D;64295;44.772;39.872;2023-07-31T00:06:40;21.00;58.19
75683;HTU21D;64295;44.772;39.872;2023-07-31T00:09:06;20.92;58.41
75683;HTU21D;64295;44.772;39.872;2023-07-31T00:11:32;20.80;58.64
75683;HTU21D;64295;44.772;39.872;2023-07-31T00:13:58;20.72;58.87
75683;HTU21D;64295;44.772;39.872;2023-07-31T00:16:24;20.68;58.94
75683;HTU21D;64295;44.772;39.872;2023-07-31T00:18:50;20.70;58.90
75683;HTU21D;64295;44.772;39.872;2023-07-31T00:21:16;20.72;58.87
75683;HTU21D;64295;44.772;39.872;2023-07-31T00:23:41;20.69;58.95
75683;HTU21D;64295;44.772;39.872;2023-07-31T00:26:07;20.63;59.12
75683;HTU21D;64295;44.772;39.872;2023-07-31T00:28:33;20.56;59.32
75683;HTU21D;64295;44.772;39.872;2023-07-31T00:30:59;20.46;59.53
75683;HTU21D;64295;44.772;39.872;2023-07-31T00:33:25;20.45;59.55
75683;HTU21D;64295;44.772;39.872;2023-07-31T00:35:51;20.48;59.52
75683;HTU21D;64295;44.772;39.872;2023-07-31T00:38:18;20.45;59.56
75683;HTU21D;64295;44.772;39.872;2023-07-31T00:40:44;20.41;59.71
75683;HTU21D;64295;44.772;39.872;2023-07-31T00:43:09;20.33;59.91
75683;HTU21D;64295;44.772;39.872;2023-07-31T00:45:35;20.26;60.07
75683;HTU21D;64295;44.772;39.872;2023-07-31T00:48:01;20.22;60.18
75683;HTU21D;64295;44.772;39.872;2023-07-31T00:50:28;20.19;60.26
75683;HTU21D;64295;44.772;39.872;2023-07-31T00:52:54;20.16;60.32
75683;HTU21D;64295;44.772;39.872;2023-07-31T00:55:20;20.12;60.41
75683;HTU21D;64295;44.772;39.872;2023-07-31T00:57:48;20.07;60.52
75683;HTU21D;64295;44.772;39.872;2023-07-31T01:00:14;20.09;60.55
75683;HTU21D;64295;44.772;39.872;2023-07-31T01:02:40;20.05;60.65
75683;HTU21D;64295;44.772;39.872;2023-07-31T01:05:06;20.03;60.74
75683;HTU21D;64295;44.772;39.872;2023-07-31T01:10:20;19.87;61.13
75683;HTU21D;64295;44.772;39.872;2023-07-31T01:12:48;19.79;61.29
75683;HTU21D;64295;44.772;39.872;2023-07-31T01:15:17;19.82;61.25
75683;HTU21D;64295;44.772;39.872;2023-07-31T01:17:43;19.79;61.30
75683;HTU21D;64295;44.772;39.872;2023-07-31T01:20:17;19.80;61.41
75683;HTU21D;64295;44.772;39.872;2023-07-31T01:26:00;19.74;61.54
75683;HTU21D;64295;44.772;39.872;2023-07-31T01:28:46;19.82;61.35
75683;HTU21D;64295;44.772;39.872;2023-07-31T01:31:20;19.86;61.16
75683;HTU21D;64295;44.772;39.872;2023-07-31T01:33:47;19.88;61.11
75683;HTU21D;64295;44.772;39.872;2023-07-31T01:36:13;19.92;61.12
75683;HTU21D;64295;44.772;39.872;2023-07-31T01:38:39;19.96;61.10
75683;HTU21D;64295;44.772;39.872;2023-07-31T01:41:05;20.00;61.02
75683;HTU21D;64295;44.772;39.872;2023-07-31T01:43:31;20.05;60.96
75683;HTU21D;64295;44.772;39.872;2023-07-31T01:45:57;20.10;60.89
75683;HTU21D;64295;44.772;39.872;2023-07-31T01:48:23;20.11;60.92
75683;HTU21D;64295;44.772;39.872;2023-07-31T01:50:49;20.13;60.99
75683;HTU21D;64295;44.772;39.872;2023-07-31T01:53:17;20.15;60.99
75683;HTU21D;64295;44.772;39.872;2023-07-31T01:55:43;20.20;60.94
75683;HTU21D;64295;44.772;39.872;2023-07-31T01:58:10;20.21;60.96
75683;HTU21D;64295;44.772;39.872;2023-07-31T02:00:36;20.21;60.98
75683;HTU21D;64295;44.772;39.872;2023-07-31T02:03:01;20.20;61.08
75683;HTU21D;64295;44.772;39.872;2023-07-31T02:05:27;20.20;61.10
75683;HTU21D;64295;44.772;39.872;2023-07-31T02:07:53;20.18;61.24
75683;HTU21D;64295;44.772;39.872;2023-07-31T02:10:20;20.10;61.41
75683;HTU21D;64295;44.772;39.872;2023-07-31T02:12:45;20.01;61.60
75683;HTU21D;64295;44.772;39.872;2023-07-31T02:15:11;19.97;61.68
75683;HTU21D;64295;44.772;39.872;2023-07-31T02:17:37;20.02;61.64
75683;HTU21D;64295;44.772;39.872;2023-07-31T02:20:03;20.05;61.55
75683;HTU21D;64295;44.772;39.872;2023-07-31T02:22:29;20.12;61.47
75683;HTU21D;64295;44.772;39.872;2023-07-31T02:24:55;20.16;61.40
75683;HTU21D;64295;44.772;39.872;2023-07-31T02:27:21;20.16;61.40
75683;HTU21D;64295;44.772;39.872;2023-07-31T02:29:49;20.16;61.43
75683;HTU21D;64295;44.772;39.872;2023-07-31T02:32:15;20.16;61.47
75683;HTU21D;64295;44.772;39.872;2023-07-31T02:34:41;20.14;61.54
75683;HTU21D;64295;44.772;39.872;2023-07-31T02:37:07;20.16;61.52
75683;HTU21D;64295;44.772;39.872;2023-07-31T02:39:33;20.18;61.49
75683;HTU21D;64295;44.772;39.872;2023-07-31T02:41:59;20.22;61.46
75683;HTU21D;64295;44.772;39.872;2023-07-31T02:44:26;20.26;61.44
75683;HTU21D;64295;44.772;39.872;2023-07-31T02:46:51;20.29;61.40
75683;HTU21D;64295;44.772;39.872;2023-07-31T02:49:17;20.29;61.41
75683;HTU21D;64295;44.772;39.872;2023-07-31T02:51:43;20.34;61.38
75683;HTU21D;64295;44.772;39.872;2023-07-31T02:54:09;20.40;61.30
75683;HTU21D;64295;44.772;39.872;2023-07-31T02:56:35;20.39;61.39
75683;HTU21D;64295;44.772;39.872;2023-07-31T02:59:01;20.32;61.60
75683;HTU21D;64295;44.772;39.872;2023-07-31T03:01:27;20.27;61.71
75683;HTU21D;64295;44.772;39.872;2023-07-31T03:03:53;20.30;61.65
75683;HTU21D;64295;44.772;39.872;2023-07-31T03:06:19;20.35;61.55
75683;HTU21D;64295;44.772;39.872;2023-07-31T03:08:45;20.43;61.44
75683;HTU21D;64295;44.772;39.872;2023-07-31T03:11:11;20.45;61.40
75683;HTU21D;64295;44.772;39.872;2023-07-31T03:13:37;20.48;61.38
75683;HTU21D;64295;44.772;39.872;2023-07-31T03:16:03;20.50;61.35
75683;HTU21D;64295;44.772;39.872;2023-07-31T03:18:29;20.51;61.34
75683;HTU21D;64295;44.772;39.872;2023-07-31T03:20:54;20.56;61.28
75683;HTU21D;64295;44.772;39.872;2023-07-31T03:23:20;20.61;61.18
75683;HTU21D;64295;44.772;39.872;2023-07-31T03:25:59;20.69;61.15
75683;HTU21D;64295;44.772;39.872;2023-07-31T03:28:27;20.72;61.00
75683;HTU21D;64295;44.772;39.872;2023-07-31T03:30:53;20.78;60.92
75683;HTU21D;64295;44.772;39.872;2023-07-31T03:33:19;20.83;60.86
75683;HTU21D;64295;44.772;39.872;2023-07-31T03:35:46;20.89;60.76
75683;HTU21D;64295;44.772;39.872;2023-07-31T03:38:11;20.93;60.70
75683;HTU21D;64295;44.772;39.872;2023-07-31T03:40:37;20.99;60.64
75683;HTU21D;64295;44.772;39.872;2023-07-31T03:43:03;21.05;60.58
75683;HTU21D;64295;44.772;39.872;2023-07-31T03:45:29;21.14;60.52
75683;HTU21D;64295;44.772;39.872;2023-07-31T03:47:55;21.21;60.45
75683;HTU21D;64295;44.772;39.872;2023-07-31T03:50:23;21.32;60.36
75683;HTU21D;64295;44.772;39.872;2023-07-31T03:52:50;21.39;60.25
75683;HTU21D;64295;44.772;39.872;2023-07-31T03:55:16;21.47;60.15
75683;HTU21D;64295;44.772;39.872;2023-07-31T03:57:43;21.54;60.06
75683;HTU21D;64295;44.772;39.872;2023-07-31T04:00:10;21.60;59.96
75683;HTU21D;64295;44.772;39.872;2023-07-31T04:02:38;21.67;59.86
75683;HTU21D;64295;44.772;39.872;2023-07-31T04:05:04;21.73;59.77
75683;HTU21D;64295;44.772;39.872;2023-07-31T04:07:30;21.82;59.64
75683;HTU21D;64295;44.772;39.872;2023-07-31T04:09:57;21.91;59.54
75683;HTU21D;64295;44.772;39.872;2023-07-31T04:12:23;21.96;59.48
75683;HTU21D;64295;44.772;39.872;2023-07-31T04:14:49;22.05;59.40
75683;HTU21D;64295;44.772;39.872;2023-07-31T04:17:17;22.10;59.29
75683;HTU21D;64295;44.772;39.872;2023-07-31T04:19:43;22.18;59.22
75683;HTU21D;64295;44.772;39.872;2023-07-31T04:22:08;22.25;59.14
75683;HTU21D;64295;44.772;39.872;2023-07-31T04:24:34;22.35;58.91
75683;HTU21D;64295;44.772;39.872;2023-07-31T04:27:00;22.41;58.75
75683;HTU21D;64295;44.772;39.872;2023-07-31T04:29:26;22.50;58.65
75683;HTU21D;64295;44.772;39.872;2023-07-31T04:31:52;22.57;58.54
75683;HTU21D;64295;44.772;39.872;2023-07-31T04:34:18;22.64;58.44
75683;HTU21D;64295;44.772;39.872;2023-07-31T04:36:44;22.72;58.32
75683;HTU21D;64295;44.772;39.872;2023-07-31T04:39:10;22.81;58.20
75683;HTU21D;64295;44.772;39.872;2023-07-31T04:41:35;22.92;58.07
75683;HTU21D;64295;44.772;39.872;2023-07-31T04:44:01;23.02;57.94
75683;HTU21D;64295;44.772;39.872;2023-07-31T04:46:29;23.13;57.76
75683;HTU21D;64295;44.772;39.872;2023-07-31T04:48:55;23.22;57.58
75683;HTU21D;64295;44.772;39.872;2023-07-31T04:51:21;23.31;57.37
75683;HTU21D;64295;44.772;39.872;2023-07-31T04:53:48;23.39;57.19
75683;HTU21D;64295;44.772;39.872;2023-07-31T04:56:15;23.45;57.12
75683;HTU21D;64295;44.772;39.872;2023-07-31T04:58:41;23.54;56.97
75683;HTU21D;64295;44.772;39.872;2023-07-31T05:01:07;23.62;56.87
75683;HTU21D;64295;44.772;39.872;2023-07-31T05:03:33;23.71;56.68
75683;HTU21D;64295;44.772;39.872;2023-07-31T05:05:59;23.85;56.51
75683;HTU21D;64295;44.772;39.872;2023-07-31T05:08:25;23.94;56.39
75683;HTU21D;64295;44.772;39.872;2023-07-31T05:10:51;24.04;56.26
75683;HTU21D;64295;44.772;39.872;2023-07-31T05:13:17;24.14;56.07
75683;HTU21D;64295;44.772;39.872;2023-07-31T05:15:43;24.25;55.90
75683;HTU21D;64295;44.772;39.872;2023-07-31T05:18:08;24.32;55.82
75683;HTU21D;64295;44.772;39.872;2023-07-31T05:20:34;24.42;55.69
75683;HTU21D;64295;44.772;39.872;2023-07-31T05:23:00;24.51;55.56
75683;HTU21D;64295;44.772;39.872;2023-07-31T05:25:26;24.62;55.44
75683;HTU21D;64295;44.772;39.872;2023-07-31T05:27:52;24.72;55.29
75683;HTU21D;64295;44.772;39.872;2023-07-31T05:30:18;24.84;55.15
75683;HTU21D;64295;44.772;39.872;2023-07-31T05:32:44;24.94;54.98
75683;HTU21D;64295;44.772;39.872;2023-07-31T05:35:09;25.06;54.84
75683;HTU21D;64295;44.772;39.872;2023-07-31T05:37:35;25.19;54.70
75683;HTU21D;64295;44.772;39.872;2023-07-31T05:40:01;25.27;54.55
75683;HTU21D;64295;44.772;39.872;2023-07-31T05:42:27;25.36;54.50
75683;HTU21D;64295;44.772;39.872;2023-07-31T05:44:53;25.49;54.35
75683;HTU21D;64295;44.772;39.872;2023-07-31T05:47:19;25.62;54.11
75683;HTU21D;64295;44.772;39.872;2023-07-31T05:49:45;25.72;53.94
75683;HTU21D;64295;44.772;39.872;2023-07-31T05:52:11;25.83;53.82
75683;HTU21D;64295;44.772;39.872;2023-07-31T05:54:37;25.97;53.56
75683;HTU21D;64295;44.772;39.872;2023-07-31T05:57:03;26.10;53.36
75683;HTU21D;64295;44.772;39.872;2023-07-31T05:59:29;26.26;53.07
75683;HTU21D;64295;44.772;39.872;2023-07-31T06:01:56;26.36;52.92
75683;HTU21D;64295;44.772;39.872;2023-07-31T06:04:22;26.47;52.69
75683;HTU21D;64295;44.772;39.872;2023-07-31T06:06:51;26.58;52.51
75683;HTU21D;64295;44.772;39.872;2023-07-31T06:09:17;26.71;52.27
75683;HTU21D;64295;44.772;39.872;2023-07-31T06:11:43;26.82;52.11
75683;HTU21D;64295;44.772;39.872;2023-07-31T06:14:09;26.92;52.04
75683;HTU21D;64295;44.772;39.872;2023-07-31T06:16:35;27.01;51.87
75683;HTU21D;64295;44.772;39.872;2023-07-31T06:19:01;27.12;51.75
75683;HTU21D;64295;44.772;39.872;2023-07-31T06:21:26;27.24;51.57
75683;HTU21D;64295;44.772;39.872;2023-07-31T06:23:52;27.38;51.37
75683;HTU21D;64295;44.772;39.872;2023-07-31T06:26:18;27.49;51.17
75683;HTU21D;64295;44.772;39.872;2023-07-31T06:28:44;27.61;51.01
75683;HTU21D;64295;44.772;39.872;2023-07-31T06:31:10;27.71;50.85
75683;HTU21D;64295;44.772;39.872;2023-07-31T06:33:36;27.84;50.66
75683;HTU21D;64295;44.772;39.872;2023-07-31T06:36:02;27.97;50.38
75683;HTU21D;64295;44.772;39.872;2023-07-31T06:38:28;28.04;50.19
75683;HTU21D;64295;44.772;39.872;2023-07-31T06:40:54;28.13;50.03
75683;HTU21D;64295;44.772;39.872;2023-07-31T06:43:20;28.23;49.88
75683;HTU21D;64295;44.772;39.872;2023-07-31T06:45:46;28.33;49.72
75683;HTU21D;64295;44.772;39.872;2023-07-31T06:48:14;28.46;49.45
75683;HTU21D;64295;44.772;39.872;2023-07-31T06:50:39;28.58;49.05
75683;HTU21D;64295;44.772;39.872;2023-07-31T06:53:05;28.70;48.91
75683;HTU21D;64295;44.772;39.872;2023-07-31T06:55:32;28.85;48.67
75683;HTU21D;64295;44.772;39.872;2023-07-31T06:57:58;28.97;48.49
75683;HTU21D;64295;44.772;39.872;2023-07-31T07:00:24;29.11;48.24
75683;HTU21D;64295;44.772;39.872;2023-07-31T07:02:50;29.24;47.98
75683;HTU21D;64295;44.772;39.872;2023-07-31T07:05:16;29.36;47.73
75683;HTU21D;64295;44.772;39.872;2023-07-31T07:07:44;29.45;47.52
75683;HTU21D;64295;44.772;39.872;2023-07-31T07:10:10;29.54;47.35
75683;HTU21D;64295;44.772;39.872;2023-07-31T07:12:36;29.67;47.14
75683;HTU21D;64295;44.772;39.872;2023-07-31T07:15:03;29.81;46.89
75683;HTU21D;64295;44.772;39.872;2023-07-31T07:17:29;29.93;46.67
75683;HTU21D;64295;44.772;39.872;2023-07-31T07:19:59;30.05;46.58
75683;HTU21D;64295;44.772;39.872;2023-07-31T07:22:25;30.20;46.30
75683;HTU21D;64295;44.772;39.872;2023-07-31T07:24:52;30.32;46.06
75683;HTU21D;64295;44.772;39.872;2023-07-31T07:27:18;30.42;45.83
75683;HTU21D;64295;44.772;39.872;2023-07-31T07:29:45;30.50;45.60
75683;HTU21D;64295;44.772;39.872;2023-07-31T07:32:12;30.50;45.59
75683;HTU21D;64295;44.772;39.872;2023-07-31T07:34:38;30.60;45.46
75683;HTU21D;64295;44.772;39.872;2023-07-31T07:37:04;30.75;45.15
75683;HTU21D;64295;44.772;39.872;2023-07-31T07:39:30;30.85;44.88
75683;HTU21D;64295;44.772;39.872;2023-07-31T07:41:56;30.96;44.70
75683;HTU21D;64295;44.772;39.872;2023-07-31T07:44:22;31.06;44.55
75683;HTU21D;64295;44.772;39.872;2023-07-31T07:46:48;31.15;44.42
75683;HTU21D;64295;44.772;39.872;2023-07-31T07:49:14;31.30;44.21
75683;HTU21D;64295;44.772;39.872;2023-07-31T07:51:39;31.38;44.03
75683;HTU21D;64295;44.772;39.872;2023-07-31T07:54:05;31.43;44.02
75683;HTU21D;64295;44.772;39.872;2023-07-31T07:56:32;31.50;43.74
75683;HTU21D;64295;44.772;39.872;2023-07-31T07:58:59;31.55;43.64
75683;HTU21D;64295;44.772;39.872;2023-07-31T08:01:24;31.65;43.42
75683;HTU21D;64295;44.772;39.872;2023-07-31T08:03:50;31.70;43.25
75683;HTU21D;64295;44.772;39.872;2023-07-31T08:06:16;31.78;43.12
75683;HTU21D;64295;44.772;39.872;2023-07-31T08:08:42;31.82;43.18
75683;HTU21D;64295;44.772;39.872;2023-07-31T08:11:08;31.88;43.39
75683;HTU21D;64295;44.772;39.872;2023-07-31T08:13:34;32.07;43.11
75683;HTU21D;64295;44.772;39.872;2023-07-31T08:16:03;32.15;42.92
75683;HTU21D;64295;44.772;39.872;2023-07-31T08:18:31;32.23;42.74
75683;HTU21D;64295;44.772;39.872;2023-07-31T08:20:57;32.23;42.98
75683;HTU21D;64295;44.772;39.872;2023-07-31T08:23:23;32.27;42.75
75683;HTU21D;64295;44.772;39.872;2023-07-31T08:25:49;32.30;42.56
75683;HTU21D;64295;44.772;39.872;2023-07-31T08:28:16;32.38;42.31
75683;HTU21D;64295;44.772;39.872;2023-07-31T08:30:42;32.46;42.23
75683;HTU21D;64295;44.772;39.872;2023-07-31T08:33:08;32.61;41.97
75683;HTU21D;64295;44.772;39.872;2023-07-31T08:35:34;32.72;41.76
75683;HTU21D;64295;44.772;39.872;2023-07-31T08:38:00;32.77;41.70
75683;HTU21D;64295;44.772;39.872;2023-07-31T08:40:26;32.78;41.69
75683;HTU21D;64295;44.772;39.872;2023-07-31T08:42:54;32.82;41.68
75683;HTU21D;64295;44.772;39.872;2023-07-31T08:45:22;32.88;41.55
75683;HTU21D;64295;44.772;39.872;2023-07-31T08:47:50;32.97;41.21
75683;HTU21D;64295;44.772;39.872;2023-07-31T08:50:18;33.02;40.97
75683;HTU21D;64295;44.772;39.872;2023-07-31T08:52:45;33.03;40.78
75683;HTU21D;64295;44.772;39.872;2023-07-31T08:55:11;33.06;40.77
75683;HTU21D;64295;44.772;39.872;2023-07-31T08:57:38;33.16;40.63
75683;HTU21D;64295;44.772;39.872;2023-07-31T09:00:06;33.29;40.51
75683;HTU21D;64295;44.772;39.872;2023-07-31T09:02:39;33.32;40.68
75683;HTU21D;64295;44.772;39.872;2023-07-31T09:05:07;33.41;40.49
75683;HTU21D;64295;44.772;39.872;2023-07-31T09:07:36;33.55;40.18
75683;HTU21D;64295;44.772;39.872;2023-07-31T09:10:04;33.65;40.23
75683;HTU21D;64295;44.772;39.872;2023-07-31T09:12:31;33.82;39.92
75683;HTU21D;64295;44.772;39.872;2023-07-31T09:15:00;33.87;39.73
75683;HTU21D;64295;44.772;39.872;2023-07-31T09:17:30;33.91;39.62
75683;HTU21D;64295;44.772;39.872;2023-07-31T09:19:57;33.91;39.57
75683;HTU21D;64295;44.772;39.872;2023-07-31T09:22:33;34.03;39.56
75683;HTU21D;64295;44.772;39.872;2023-07-31T09:25:21;34.14;39.31
75683;HTU21D;64295;44.772;39.872;2023-07-31T09:27:59;34.19;39.37
75683;HTU21D;64295;44.772;39.872;2023-07-31T09:30:26;34.24;39.30
75683;HTU21D;64295;44.772;39.872;2023-07-31T09:33:01;34.35;39.17
75683;HTU21D;64295;44.772;39.872;2023-07-31T09:35:32;34.44;38.71
75683;HTU21D;64295;44.772;39.872;2023-07-31T09:38:01;34.51;38.44
75683;HTU21D;64295;44.772;39.872;2023-07-31T09:40:36;34.50;38.53
75683;HTU21D;64295;44.772;39.872;2023-07-31T09:43:04;34.40;38.43
75683;HTU21D;64295;44.772;39.872;2023-07-31T09:45:35;34.41;38.06
75683;HTU21D;64295;44.772;39.872;2023-07-31T09:48:02;34.49;38.62
75683;HTU21D;64295;44.772;39.872;2023-07-31T09:50:29;34.53;37.99
75683;HTU21D;64295;44.772;39.872;2023-07-31T09:52:55;34.54;37.56
75683;HTU21D;64295;44.772;39.872;2023-07-31T09:55:21;34.61;36.96
75683;HTU21D;64295;44.772;39.872;2023-07-31T09:57:48;34.70;36.78
75683;HTU21D;64295;44.772;39.872;2023-07-31T10:00:17;34.76;36.76
75683;HTU21D;64295;44.772;39.872;2023-07-31T10:02:46;34.63;37.55
75683;HTU21D;64295;44.772;39.872;2023-07-31T10:05:15;34.61;37.34
75683;HTU21D;64295;44.772;39.872;2023-07-31T10:07:51;34.57;37.01
75683;HTU21D;64295;44.772;39.872;2023-07-31T10:10:18;34.61;36.83
75683;HTU21D;64295;44.772;39.872;2023-07-31T10:12:50;34.73;36.42
75683;HTU21D;64295;44.772;39.872;2023-07-31T10:15:17;34.76;36.34
75683;HTU21D;64295;44.772;39.872;2023-07-31T10:17:44;34.78;36.11
75683;HTU21D;64295;44.772;39.872;2023-07-31T10:20:10;34.80;35.86
75683;HTU21D;64295;44.772;39.872;2023-07-31T10:22:36;34.85;35.65
75683;HTU21D;64295;44.772;39.872;2023-07-31T10:25:03;34.89;35.47
75683;HTU21D;64295;44.772;39.872;2023-07-31T10:27:29;34.94;35.40
75683;HTU21D;64295;44.772;39.872;2023-07-31T10:29:56;35.09;35.02
75683;HTU21D;64295;44.772;39.872;2023-07-31T10:32:23;35.15;34.78
75683;HTU21D;64295;44.772;39.872;2023-07-31T10:34:51;35.21;34.58
75683;HTU21D;64295;44.772;39.872;2023-07-31T10:37:28;35.23;34.29
75683;HTU21D;64295;44.772;39.872;2023-07-31T10:40:05;35.22;34.19
75683;HTU21D;64295;44.772;39.872;2023-07-31T10:42:34;35.22;34.05
75683;HTU21D;64295;44.772;39.872;2023-07-31T10:45:09;35.27;33.99
75683;HTU21D;64295;44.772;39.872;2023-07-31T10:47:45;35.30;33.77
75683;HTU21D;64295;44.772;39.872;2023-07-31T10:50:20;35.34;33.98
75683;HTU21D;64295;44.772;39.872;2023-07-31T10:52:54;35.47;34.26
75683;HTU21D;64295;44.772;39.872;2023-07-31T10:55:42;35.50;33.96
75683;HTU21D;64295;44.772;39.872;2023-07-31T10:58:13;35.45;33.83
75683;HTU21D;64295;44.772;39.872;2023-07-31T11:00:44;35.45;33.80
75683;HTU21D;64295;44.772;39.872;2023-07-31T11:03:16;35.45;33.76
75683;HTU21D;64295;44.772;39.872;2023-07-31T11:08:32;35.69;33.36
75683;HTU21D;64295;44.772;39.872;2023-07-31T11:11:06;35.64;33.22
75683;HTU21D;64295;44.772;39.872;2023-07-31T11:13:40;35.60;33.20
75683;HTU21D;64295;44.772;39.872;2023-07-31T11:16:06;35.72;33.09
75683;HTU21D;64295;44.772;39.872;2023-07-31T11:18:32;35.71;33.18
75683;HTU21D;64295;44.772;39.872;2023-07-31T11:20:58;35.81;33.05
75683;HTU21D;64295;44.772;39.872;2023-07-31T11:23:24;35.88;32.76
75683;HTU21D;64295;44.772;39.872;2023-07-31T11:25:50;35.89;32.64
75683;HTU21D;64295;44.772;39.872;2023-07-31T11:28:18;35.86;32.55
75683;HTU21D;64295;44.772;39.872;2023-07-31T11:30:45;35.87;32.45
75683;HTU21D;64295;44.772;39.872;2023-07-31T11:33:12;35.87;32.28
75683;HTU21D;64295;44.772;39.872;2023-07-31T11:38:07;35.84;32.15
75683;HTU21D;64295;44.772;39.872;2023-07-31T11:40:43;35.90;32.07
75683;HTU21D;64295;44.772;39.872;2023-07-31T11:43:09;35.98;31.81
75683;HTU21D;64295;44.772;39.872;2023-07-31T11:45:37;36.01;31.73
75683;HTU21D;64295;44.772;39.872;2023-07-31T11:48:04;35.97;31.61
75683;HTU21D;64295;44.772;39.872;2023-07-31T11:50:33;35.95;31.67
75683;HTU21D;64295;44.772;39.872;2023-07-31T11:53:03;35.97;31.67
75683;HTU21D;64295;44.772;39.872;2023-07-31T11:55:32;35.93;31.69
75683;HTU21D;64295;44.772;39.872;2023-07-31T11:57:58;35.92;31.56
75683;HTU21D;64295;44.772;39.872;2023-07-31T12:00:26;35.88;31.58
75683;HTU21D;64295;44.772;39.872;2023-07-31T12:02:53;35.97;31.45
75683;HTU21D;64295;44.772;39.872;2023-07-31T12:05:19;35.95;31.36
75683;HTU21D;64295;44.772;39.872;2023-07-31T12:07:50;35.90;31.38
75683;HTU21D;64295;44.772;39.872;2023-07-31T12:10:28;35.92;31.41
75683;HTU21D;64295;44.772;39.872;2023-07-31T12:13:05;35.93;31.31
75683;HTU21D;64295;44.772;39.872;2023-07-31T12:15:36;35.95;31.37
75683;HTU21D;64295;44.772;39.872;2023-07-31T12:18:07;36.02;31.12
75683;HTU21D;64295;44.772;39.872;2023-07-31T12:20:33;35.99;31.02
75683;HTU21D;64295;44.772;39.872;2023-07-31T12:22:59;35.96;31.01
75683;HTU21D;64295;44.772;39.872;2023-07-31T12:25:30;35.96;30.83
75683;HTU21D;64295;44.772;39.872;2023-07-31T12:27:56;35.93;30.74
75683;HTU21D;64295;44.772;39.872;2023-07-31T12:30:27;35.94;30.73
75683;HTU21D;64295;44.772;39.872;2023-07-31T12:32:53;35.97;30.61
75683;HTU21D;64295;44.772;39.872;2023-07-31T12:35:19;36.00;30.47
75683;HTU21D;64295;44.772;39.872;2023-07-31T12:37:45;36.01;30.34
75683;HTU21D;64295;44.772;39.872;2023-07-31T12:40:11;35.95;30.30
75683;HTU21D;64295;44.772;39.872;2023-07-31T12:42:38;35.97;30.26
75683;HTU21D;64295;44.772;39.872;2023-07-31T12:45:04;36.01;30.27
75683;HTU21D;64295;44.772;39.872;2023-07-31T12:47:30;36.03;30.11
75683;HTU21D;64295;44.772;39.872;2023-07-31T12:49:56;36.07;30.01
75683;HTU21D;64295;44.772;39.872;2023-07-31T12:52:22;36.11;30.02
75683;HTU21D;64295;44.772;39.872;2023-07-31T12:54:48;36.09;30.00
75683;HTU21D;64295;44.772;39.872;2023-07-31T12:57:14;36.09;30.09
75683;HTU21D;64295;44.772;39.872;2023-07-31T12:59:40;35.98;30.08
75683;HTU21D;64295;44.772;39.872;2023-07-31T13:02:06;35.89;29.99
75683;HTU21D;64295;44.772;39.872;2023-07-31T13:04:31;35.83;29.88
75683;HTU21D;64295;44.772;39.872;2023-07-31T13:06:57;35.73;30.04
75683;HTU21D;64295;44.772;39.872;2023-07-31T13:09:23;35.80;29.85
75683;HTU21D;64295;44.772;39.872;2023-07-31T13:12:56;35.87;29.56
75683;HTU21D;64295;44.772;39.872;2023-07-31T13:15:22;35.97;29.39
75683;HTU21D;64295;44.772;39.872;2023-07-31T13:17:48;35.95;29.26
75683;HTU21D;64295;44.772;39.872;2023-07-31T13:20:14;35.95;29.20
75683;HTU21D;64295;44.772;39.872;2023-07-31T13:22:40;35.98;29.07
75683;HTU21D;64295;44.772;39.872;2023-07-31T13:25:07;35.97;29.08
75683;HTU21D;64295;44.772;39.872;2023-07-31T13:27:33;35.88;29.11
75683;HTU21D;64295;44.772;39.872;2023-07-31T13:29:59;35.87;29.20
75683;HTU21D;64295;44.772;39.872;2023-07-31T13:32:25;35.84;29.34
75683;HTU21D;64295;44.772;39.872;2023-07-31T13:34:51;35.75;29.22
75683;HTU21D;64295;44.772;39.872;2023-07-31T13:37:17;35.62;29.21
75683;HTU21D;64295;44.772;39.872;2023-07-31T13:39:43;35.51;29.23
75683;HTU21D;64295;44.772;39.872;2023-07-31T13:42:09;35.42;29.32
75683;HTU21D;64295;44.772;39.872;2023-07-31T13:44:38;35.53;29.14
75683;HTU21D;64295;44.772;39.872;2023-07-31T13:47:04;35.54;29.02
75683;HTU21D;64295;44.772;39.872;2023-07-31T13:49:30;35.54;29.05
75683;HTU21D;64295;44.772;39.872;2023-07-31T13:51:57;35.44;28.99
75683;HTU21D;64295;44.772;39.872;2023-07-31T13:54:23;35.24;29.06
75683;HTU21D;64295;44.772;39.872;2023-07-31T13:56:50;35.14;29.06
75683;HTU21D;64295;44.772;39.872;2023-07-31T13:59:15;35.09;29.06
75683;HTU21D;64295;44.772;39.872;2023-07-31T14:01:43;34.98;29.03
75683;HTU21D;64295;44.772;39.872;2023-07-31T14:04:09;34.88;29.08
75683;HTU21D;64295;44.772;39.872;2023-07-31T14:06:35;34.74;29.19
75683;HTU21D;64295;44.772;39.872;2023-07-31T14:09:01;34.62;29.28
75683;HTU21D;64295;44.772;39.872;2023-07-31T14:11:28;34.51;29.35
75683;HTU21D;64295;44.772;39.872;2023-07-31T14:13:55;34.45;29.42
75683;HTU21D;64295;44.772;39.872;2023-07-31T14:16:22;34.40;29.50
75683;HTU21D;64295;44.772;39.872;2023-07-31T14:18:48;34.44;29.51
75683;HTU21D;64295;44.772;39.872;2023-07-31T14:21:14;34.46;29.48
75683;HTU21D;64295;44.772;39.872;2023-07-31T14:23:40;34.42;29.49
75683;HTU21D;64295;44.772;39.872;2023-07-31T14:26:06;34.44;29.48
75683;HTU21D;64295;44.772;39.872;2023-07-31T14:28:32;34.47;29.40
75683;HTU21D;64295;44.772;39.872;2023-07-31T14:30:58;34.48;29.34
75683;HTU21D;64295;44.772;39.872;2023-07-31T14:33:24;34.49;29.31
75683;HTU21D;64295;44.772;39.872;2023-07-31T14:35:50;34.45;29.28
75683;HTU21D;64295;44.772;39.872;2023-07-31T14:38:16;34.36;29.34
75683;HTU21D;64295;44.772;39.872;2023-07-31T14:40:42;34.21;29.45
75683;HTU21D;64295;44.772;39.872;2023-07-31T14:43:08;34.08;29.57
75683;HTU21D;64295;44.772;39.872;2023-07-31T14:45:34;34.06;29.58
75683;HTU21D;64295;44.772;39.872;2023-07-31T14:48:00;34.07;29.55
75683;HTU21D;64295;44.772;39.872;2023-07-31T14:50:26;34.01;29.60
75683;HTU21D;64295;44.772;39.872;2023-07-31T14:52:52;33.95;29.61
75683;HTU21D;64295;44.772;39.872;2023-07-31T14:55:18;33.94;29.53
75683;HTU21D;64295;44.772;39.872;2023-07-31T14:57:44;33.94;29.50
75683;HTU21D;64295;44.772;39.872;2023-07-31T15:00:11;33.92;29.48
75683;HTU21D;64295;44.772;39.872;2023-07-31T15:02:40;33.90;29.51
75683;HTU21D;64295;44.772;39.872;2023-07-31T15:05:06;33.89;29.47
75683;HTU21D;64295;44.772;39.872;2023-07-31T15:07:33;33.87;29.47
75683;HTU21D;64295;44.772;39.872;2023-07-31T15:10:01;33.82;29.47
75683;HTU21D;64295;44.772;39.872;2023-07-31T15:12:27;33.74;29.93
75683;HTU21D;64295;44.772;39.872;2023-07-31T15:14:53;33.67;29.85